sensor_id;sensor_type;location;lat;lon;timestamp;P1;durP1;ratioP1;P2;durP2;ratioP2
19897;SDS011;10111;50.814;4.572;2023-03-20T00:03:50;10.20;;;7.03;;
19897;SDS011;10111;50.814;4.572;2023-03-20T00:06:16;11.00;;;6.90;;
19897;SDS011;10111;50.814;4.572;2023-03-20T00:08:44;8.77;;;6.00;;
19897;SDS011;10111;50.814;4.572;2023-03-20T00:14:09;9.23;;;6.13;;
19897;SDS011;10111;50.814;4.572;2023-03-20T00:16:39;9.63;;;6.50;;
19897;SDS011;10111;50.814;4.572;2023-03-20T00:19:11;9.20;;;6.60;;
19897;SDS011;10111;50.814;4.572;2023-03-20T00:21:48;12.37;;;8.67;;
19897;SDS011;10111;50.814;4.572;2023-03-20T00:24:15;11.67;;;7.60;;
19897;SDS011;10111;50.814;4.572;2023-03-20T00:26:41;14.33;;;8.07;;
19897;SDS011;10111;50.814;4.572;2023-03-20T00:29:13;13.00;;;9.37;;
19897;SDS011;10111;50.814;4.572;2023-03-20T00:31:44;13.63;;;8.20;;
19897;SDS011;10111;50.814;4.572;2023-03-20T00:34:13;12.80;;;8.00;;
19897;SDS011;10111;50.814;4.572;2023-03-20T00:36:41;15.43;;;9.40;;
19897;SDS011;10111;50.814;4.572;2023-03-20T00:39:07;12.17;;;7.60;;
19897;SDS011;10111;50.814;4.572;2023-03-20T00:41:40;11.00;;;7.80;;
19897;SDS011;10111;50.814;4.572;2023-03-20T00:44:25;10.53;;;6.53;;
19897;SDS011;10111;50.814;4.572;2023-03-20T00:46:56;13.43;;;7.23;;
19897;SDS011;10111;50.814;4.572;2023-03-20T00:49:28;11.70;;;7.97;;
19897;SDS011;10111;50.814;4.572;2023-03-20T00:51:58;11.50;;;7.47;;
19897;SDS011;10111;50.814;4.572;2023-03-20T00:54:25;9.40;;;8.03;;
19897;SDS011;10111;50.814;4.572;2023-03-20T00:56:53;9.07;;;6.63;;
19897;SDS011;10111;50.814;4.572;2023-03-20T00:59:24;11.93;;;7.20;;
19897;SDS011;10111;50.814;4.572;2023-03-20T01:01:52;13.83;;;8.60;;
19897;SDS011;10111;50.814;4.572;2023-03-20T01:04:19;11.47;;;7.30;;
19897;SDS011;10111;50.814;4.572;2023-03-20T01:06:45;14.67;;;8.00;;
19897;SDS011;10111;50.814;4.572;2023-03-20T01:09:11;10.63;;;7.50;;
19897;SDS011;10111;50.814;4.572;2023-03-20T01:11:37;15.40;;;8.43;;
19897;SDS011;10111;50.814;4.572;2023-03-20T01:14:05;14.33;;;8.17;;
19897;SDS011;10111;50.814;4.572;2023-03-20T01:16:37;14.10;;;9.97;;
19897;SDS011;10111;50.814;4.572;2023-03-20T01:19:02;12.70;;;8.10;;
19897;SDS011;10111;50.814;4.572;2023-03-20T01:21:28;13.83;;;9.30;;
19897;SDS011;10111;50.814;4.572;2023-03-20T01:23:54;15.70;;;9.70;;
19897;SDS011;10111;50.814;4.572;2023-03-20T01:26:21;14.13;;;9.17;;
19897;SDS011;10111;50.814;4.572;2023-03-20T01:28:54;16.80;;;8.80;;
19897;SDS011;10111;50.814;4.572;2023-03-20T01:31:19;16.63;;;8.03;;
19897;SDS011;10111;50.814;4.572;2023-03-20T01:33:45;12.60;;;8.40;;
19897;SDS011;10111;50.814;4.572;2023-03-20T01:36:14;10.77;;;7.37;;
19897;SDS011;10111;50.814;4.572;2023-03-20T01:38:44;12.03;;;7.53;;
19897;SDS011;10111;50.814;4.572;2023-03-20T01:41:11;12.27;;;8.00;;
19897;SDS011;10111;50.814;4.572;2023-03-20T01:43:40;13.90;;;8.13;;
19897;SDS011;10111;50.814;4.572;2023-03-20T01:51:21;17.47;;;8.27;;
19897;SDS011;10111;50.814;4.572;2023-03-20T01:53:50;16.23;;;8.97;;
19897;SDS011;10111;50.814;4.572;2023-03-20T01:56:20;15.77;;;9.03;;
19897;SDS011;10111;50.814;4.572;2023-03-20T01:58:47;15.80;;;8.57;;
19897;SDS011;10111;50.814;4.572;2023-03-20T02:01:35;12.33;;;7.60;;
19897;SDS011;10111;50.814;4.572;2023-03-20T02:04:01;13.73;;;8.03;;
19897;SDS011;10111;50.814;4.572;2023-03-20T02:06:28;13.27;;;8.63;;
19897;SDS011;10111;50.814;4.572;2023-03-20T02:08:53;16.97;;;9.27;;
19897;SDS011;10111;50.814;4.572;2023-03-20T02:11:20;14.83;;;9.43;;
19897;SDS011;10111;50.814;4.572;2023-03-20T02:13:51;15.17;;;8.47;;
19897;SDS011;10111;50.814;4.572;2023-03-20T02:16:20;13.83;;;7.87;;
19897;SDS011;10111;50.814;4.572;2023-03-20T02:18:47;17.10;;;10.33;;
19897;SDS011;10111;50.814;4.572;2023-03-20T02:34:49;16.90;;;10.03;;
19897;SDS011;10111;50.814;4.572;2023-03-20T02:40:09;13.77;;;9.20;;
19897;SDS011;10111;50.814;4.572;2023-03-20T02:42:49;16.77;;;9.60;;
19897;SDS011;10111;50.814;4.572;2023-03-20T02:45:30;21.23;;;9.63;;
19897;SDS011;10111;50.814;4.572;2023-03-20T02:48:15;16.93;;;9.63;;
19897;SDS011;10111;50.814;4.572;2023-03-20T02:53:47;13.97;;;8.17;;
19897;SDS011;10111;50.814;4.572;2023-03-20T02:59:10;13.23;;;9.13;;
19897;SDS011;10111;50.814;4.572;2023-03-20T03:01:51;17.37;;;9.20;;
19897;SDS011;10111;50.814;4.572;2023-03-20T03:04:28;14.53;;;9.03;;
19897;SDS011;10111;50.814;4.572;2023-03-20T03:06:57;16.30;;;9.73;;
19897;SDS011;10111;50.814;4.572;2023-03-20T03:12:00;15.33;;;8.97;;
19897;SDS011;10111;50.814;4.572;2023-03-20T03:14:42;18.60;;;8.63;;
19897;SDS011;10111;50.814;4.572;2023-03-20T03:17:15;11.53;;;8.27;;
19897;SDS011;10111;50.814;4.572;2023-03-20T03:19:48;16.40;;;8.83;;
19897;SDS011;10111;50.814;4.572;2023-03-20T03:22:17;18.33;;;10.03;;
19897;SDS011;10111;50.814;4.572;2023-03-20T03:24:48;18.13;;;9.27;;
19897;SDS011;10111;50.814;4.572;2023-03-20T03:27:19;17.23;;;9.30;;
19897;SDS011;10111;50.814;4.572;2023-03-20T03:29:52;20.63;;;10.63;;
19897;SDS011;10111;50.814;4.572;2023-03-20T03:32:22;18.03;;;10.50;;
19897;SDS011;10111;50.814;4.572;2023-03-20T03:35:00;17.17;;;9.80;;
19897;SDS011;10111;50.814;4.572;2023-03-20T03:40:06;22.60;;;11.00;;
19897;SDS011;10111;50.814;4.572;2023-03-20T03:45:28;17.60;;;10.90;;
19897;SDS011;10111;50.814;4.572;2023-03-20T03:48:19;19.27;;;10.30;;
19897;SDS011;10111;50.814;4.572;2023-03-20T03:50:49;20.47;;;11.27;;
19897;SDS011;10111;50.814;4.572;2023-03-20T03:53:22;19.60;;;10.77;;
19897;SDS011;10111;50.814;4.572;2023-03-20T03:55:56;20.23;;;9.90;;
19897;SDS011;10111;50.814;4.572;2023-03-20T03:58:27;22.63;;;11.33;;
19897;SDS011;10111;50.814;4.572;2023-03-20T04:00:56;20.40;;;10.77;;
19897;SDS011;10111;50.814;4.572;2023-03-20T04:03:26;20.83;;;11.63;;
19897;SDS011;10111;50.814;4.572;2023-03-20T04:05:55;20.30;;;10.47;;
19897;SDS011;10111;50.814;4.572;2023-03-20T04:08:23;23.63;;;10.93;;
19897;SDS011;10111;50.814;4.572;2023-03-20T04:10:49;19.40;;;10.57;;
19897;SDS011;10111;50.814;4.572;2023-03-20T04:13:15;19.63;;;9.03;;
19897;SDS011;10111;50.814;4.572;2023-03-20T04:15:41;17.03;;;9.77;;
19897;SDS011;10111;50.814;4.572;2023-03-20T04:18:08;15.67;;;9.50;;
19897;SDS011;10111;50.814;4.572;2023-03-20T04:20:40;20.43;;;10.37;;
19897;SDS011;10111;50.814;4.572;2023-03-20T04:23:07;24.23;;;11.80;;
19897;SDS011;10111;50.814;4.572;2023-03-20T04:25:32;25.47;;;10.60;;
19897;SDS011;10111;50.814;4.572;2023-03-20T04:27:58;15.67;;;10.20;;
19897;SDS011;10111;50.814;4.572;2023-03-20T04:30:24;15.07;;;9.83;;
19897;SDS011;10111;50.814;4.572;2023-03-20T04:32:50;23.17;;;10.37;;
19897;SDS011;10111;50.814;4.572;2023-03-20T04:35:15;15.17;;;8.70;;
19897;SDS011;10111;50.814;4.572;2023-03-20T04:37:41;18.93;;;9.33;;
19897;SDS011;10111;50.814;4.572;2023-03-20T04:40:07;15.93;;;9.57;;
19897;SDS011;10111;50.814;4.572;2023-03-20T04:42:33;17.13;;;9.83;;
19897;SDS011;10111;50.814;4.572;2023-03-20T04:44:59;18.27;;;9.97;;
19897;SDS011;10111;50.814;4.572;2023-03-20T04:47:25;18.00;;;9.13;;
19897;SDS011;10111;50.814;4.572;2023-03-20T04:49:50;14.00;;;8.63;;
19897;SDS011;10111;50.814;4.572;2023-03-20T04:52:16;17.13;;;9.57;;
19897;SDS011;10111;50.814;4.572;2023-03-20T04:54:41;16.50;;;9.40;;
19897;SDS011;10111;50.814;4.572;2023-03-20T04:57:07;21.13;;;9.57;;
19897;SDS011;10111;50.814;4.572;2023-03-20T04:59:33;19.77;;;10.63;;
19897;SDS011;10111;50.814;4.572;2023-03-20T05:01:58;23.40;;;10.10;;
19897;SDS011;10111;50.814;4.572;2023-03-20T05:04:24;16.33;;;9.30;;
19897;SDS011;10111;50.814;4.572;2023-03-20T05:06:50;17.43;;;8.60;;
19897;SDS011;10111;50.814;4.572;2023-03-20T05:09:16;15.47;;;8.43;;
19897;SDS011;10111;50.814;4.572;2023-03-20T05:11:42;17.90;;;8.67;;
19897;SDS011;10111;50.814;4.572;2023-03-20T05:14:08;20.10;;;9.03;;
19897;SDS011;10111;50.814;4.572;2023-03-20T05:16:35;21.07;;;8.97;;
19897;SDS011;10111;50.814;4.572;2023-03-20T05:19:02;13.37;;;8.80;;
19897;SDS011;10111;50.814;4.572;2023-03-20T05:21:27;16.43;;;8.13;;
19897;SDS011;10111;50.814;4.572;2023-03-20T05:23:53;16.93;;;9.33;;
19897;SDS011;10111;50.814;4.572;2023-03-20T05:26:19;19.60;;;9.67;;
19897;SDS011;10111;50.814;4.572;2023-03-20T05:28:44;17.97;;;8.17;;
19897;SDS011;10111;50.814;4.572;2023-03-20T05:31:10;19.63;;;9.10;;
19897;SDS011;10111;50.814;4.572;2023-03-20T05:33:36;15.67;;;8.83;;
19897;SDS011;10111;50.814;4.572;2023-03-20T05:36:02;17.77;;;8.73;;
19897;SDS011;10111;50.814;4.572;2023-03-20T05:38:27;16.40;;;8.43;;
19897;SDS011;10111;50.814;4.572;2023-03-20T05:40:56;20.23;;;9.63;;
19897;SDS011;10111;50.814;4.572;2023-03-20T05:43:23;21.87;;;8.27;;
19897;SDS011;10111;50.814;4.572;2023-03-20T05:45:49;23.67;;;10.20;;
19897;SDS011;10111;50.814;4.572;2023-03-20T05:48:15;20.00;;;9.07;;
19897;SDS011;10111;50.814;4.572;2023-03-20T05:50:41;16.83;;;8.77;;
19897;SDS011;10111;50.814;4.572;2023-03-20T05:53:07;13.50;;;8.80;;
19897;SDS011;10111;50.814;4.572;2023-03-20T05:55:33;18.87;;;8.67;;
19897;SDS011;10111;50.814;4.572;2023-03-20T05:57:58;15.20;;;8.53;;
19897;SDS011;10111;50.814;4.572;2023-03-20T06:00:24;16.63;;;7.93;;
19897;SDS011;10111;50.814;4.572;2023-03-20T06:02:50;18.53;;;9.17;;
19897;SDS011;10111;50.814;4.572;2023-03-20T06:05:16;13.67;;;8.33;;
19897;SDS011;10111;50.814;4.572;2023-03-20T06:07:42;17.83;;;8.60;;
19897;SDS011;10111;50.814;4.572;2023-03-20T06:10:08;15.30;;;7.80;;
19897;SDS011;10111;50.814;4.572;2023-03-20T06:12:34;16.93;;;8.00;;
19897;SDS011;10111;50.814;4.572;2023-03-20T06:15:00;23.33;;;8.43;;
19897;SDS011;10111;50.814;4.572;2023-03-20T06:17:25;21.50;;;8.73;;
19897;SDS011;10111;50.814;4.572;2023-03-20T06:19:51;18.67;;;7.93;;
19897;SDS011;10111;50.814;4.572;2023-03-20T06:22:17;17.93;;;7.63;;
19897;SDS011;10111;50.814;4.572;2023-03-20T06:24:43;17.80;;;8.40;;
19897;SDS011;10111;50.814;4.572;2023-03-20T06:27:08;16.37;;;8.60;;
19897;SDS011;10111;50.814;4.572;2023-03-20T06:29:34;16.37;;;7.80;;
19897;SDS011;10111;50.814;4.572;2023-03-20T06:32:00;14.77;;;7.20;;
19897;SDS011;10111;50.814;4.572;2023-03-20T06:34:25;18.93;;;8.23;;
19897;SDS011;10111;50.814;4.572;2023-03-20T06:36:51;15.07;;;8.07;;
19897;SDS011;10111;50.814;4.572;2023-03-20T06:39:17;13.03;;;7.73;;
19897;SDS011;10111;50.814;4.572;2023-03-20T06:41:43;13.30;;;7.90;;
19897;SDS011;10111;50.814;4.572;2023-03-20T06:44:08;16.47;;;6.70;;
19897;SDS011;10111;50.814;4.572;2023-03-20T06:46:34;13.93;;;6.10;;
19897;SDS011;10111;50.814;4.572;2023-03-20T06:49:00;11.80;;;6.07;;
19897;SDS011;10111;50.814;4.572;2023-03-20T06:51:25;16.10;;;6.40;;
19897;SDS011;10111;50.814;4.572;2023-03-20T06:53:51;10.93;;;5.13;;
19897;SDS011;10111;50.814;4.572;2023-03-20T06:56:17;13.43;;;6.27;;
19897;SDS011;10111;50.814;4.572;2023-03-20T06:58:42;11.90;;;5.30;;
19897;SDS011;10111;50.814;4.572;2023-03-20T07:01:11;11.40;;;6.30;;
19897;SDS011;10111;50.814;4.572;2023-03-20T07:03:39;12.20;;;5.00;;
19897;SDS011;10111;50.814;4.572;2023-03-20T07:06:06;18.00;;;5.93;;
19897;SDS011;10111;50.814;4.572;2023-03-20T07:08:32;9.13;;;5.10;;
19897;SDS011;10111;50.814;4.572;2023-03-20T07:10:58;15.00;;;5.73;;
19897;SDS011;10111;50.814;4.572;2023-03-20T07:13:25;10.47;;;6.07;;
19897;SDS011;10111;50.814;4.572;2023-03-20T07:15:52;11.13;;;4.83;;
19897;SDS011;10111;50.814;4.572;2023-03-20T07:18:18;9.87;;;6.00;;
19897;SDS011;10111;50.814;4.572;2023-03-20T07:20:44;13.80;;;5.43;;
19897;SDS011;10111;50.814;4.572;2023-03-20T07:23:10;15.30;;;5.50;;
19897;SDS011;10111;50.814;4.572;2023-03-20T07:25:36;10.27;;;5.13;;
19897;SDS011;10111;50.814;4.572;2023-03-20T07:28:03;16.13;;;5.00;;
19897;SDS011;10111;50.814;4.572;2023-03-20T07:30:30;10.17;;;5.33;;
19897;SDS011;10111;50.814;4.572;2023-03-20T07:32:56;10.70;;;5.03;;
19897;SDS011;10111;50.814;4.572;2023-03-20T07:35:22;10.23;;;5.43;;
19897;SDS011;10111;50.814;4.572;2023-03-20T07:37:48;10.20;;;4.93;;
19897;SDS011;10111;50.814;4.572;2023-03-20T07:40:14;11.43;;;5.70;;
19897;SDS011;10111;50.814;4.572;2023-03-20T07:42:40;10.30;;;4.60;;
19897;SDS011;10111;50.814;4.572;2023-03-20T07:45:06;17.13;;;4.63;;
19897;SDS011;10111;50.814;4.572;2023-03-20T07:47:33;7.53;;;3.87;;
19897;SDS011;10111;50.814;4.572;2023-03-20T07:49:59;10.20;;;4.43;;
19897;SDS011;10111;50.814;4.572;2023-03-20T07:52:25;9.17;;;4.33;;
19897;SDS011;10111;50.814;4.572;2023-03-20T07:54:50;13.83;;;4.87;;
19897;SDS011;10111;50.814;4.572;2023-03-20T07:57:16;12.27;;;4.63;;
19897;SDS011;10111;50.814;4.572;2023-03-20T07:59:42;10.70;;;4.17;;
19897;SDS011;10111;50.814;4.572;2023-03-20T08:02:11;11.67;;;4.10;;
19897;SDS011;10111;50.814;4.572;2023-03-20T08:04:39;13.83;;;4.10;;
19897;SDS011;10111;50.814;4.572;2023-03-20T08:07:05;10.97;;;4.60;;
19897;SDS011;10111;50.814;4.572;2023-03-20T08:09:31;10.63;;;4.50;;
19897;SDS011;10111;50.814;4.572;2023-03-20T08:11:57;12.50;;;4.03;;
19897;SDS011;10111;50.814;4.572;2023-03-20T08:14:22;13.87;;;4.20;;
19897;SDS011;10111;50.814;4.572;2023-03-20T08:16:48;9.87;;;4.40;;
19897;SDS011;10111;50.814;4.572;2023-03-20T08:19:14;12.93;;;5.63;;
19897;SDS011;10111;50.814;4.572;2023-03-20T08:21:40;9.70;;;3.97;;
19897;SDS011;10111;50.814;4.572;2023-03-20T08:24:05;14.97;;;4.27;;
19897;SDS011;10111;50.814;4.572;2023-03-20T08:26:32;10.30;;;3.63;;
19897;SDS011;10111;50.814;4.572;2023-03-20T08:28:58;10.53;;;4.93;;
19897;SDS011;10111;50.814;4.572;2023-03-20T08:31:24;12.17;;;4.13;;
19897;SDS011;10111;50.814;4.572;2023-03-20T08:33:49;12.30;;;4.17;;
19897;SDS011;10111;50.814;4.572;2023-03-20T08:36:16;8.50;;;3.53;;
19897;SDS011;10111;50.814;4.572;2023-03-20T08:38:44;16.93;;;4.30;;
19897;SDS011;10111;50.814;4.572;2023-03-20T08:41:10;12.93;;;5.33;;
19897;SDS011;10111;50.814;4.572;2023-03-20T08:43:36;10.87;;;4.20;;
19897;SDS011;10111;50.814;4.572;2023-03-20T08:46:02;9.77;;;3.60;;
19897;SDS011;10111;50.814;4.572;2023-03-20T08:48:28;11.27;;;4.70;;
19897;SDS011;10111;50.814;4.572;2023-03-20T08:50:54;9.70;;;4.10;;
19897;SDS011;10111;50.814;4.572;2023-03-20T08:53:20;12.20;;;5.13;;
19897;SDS011;10111;50.814;4.572;2023-03-20T08:55:49;8.80;;;3.90;;
19897;SDS011;10111;50.814;4.572;2023-03-20T08:58:15;9.73;;;4.33;;
19897;SDS011;10111;50.814;4.572;2023-03-20T09:00:42;9.47;;;5.07;;
19897;SDS011;10111;50.814;4.572;2023-03-20T09:03:14;8.73;;;3.40;;
19897;SDS011;10111;50.814;4.572;2023-03-20T09:05:43;7.90;;;3.77;;
19897;SDS011;10111;50.814;4.572;2023-03-20T09:08:10;11.23;;;4.47;;
19897;SDS011;10111;50.814;4.572;2023-03-20T09:10:36;7.73;;;3.90;;
19897;SDS011;10111;50.814;4.572;2023-03-20T09:13:01;10.43;;;4.13;;
19897;SDS011;10111;50.814;4.572;2023-03-20T09:15:27;10.17;;;4.30;;
19897;SDS011;10111;50.814;4.572;2023-03-20T09:17:53;9.13;;;4.87;;
19897;SDS011;10111;50.814;4.572;2023-03-20T09:20:19;6.97;;;4.40;;
19897;SDS011;10111;50.814;4.572;2023-03-20T09:22:45;8.90;;;5.13;;
19897;SDS011;10111;50.814;4.572;2023-03-20T09:25:11;7.83;;;4.00;;
19897;SDS011;10111;50.814;4.572;2023-03-20T09:27:37;12.37;;;4.37;;
19897;SDS011;10111;50.814;4.572;2023-03-20T09:30:04;6.63;;;3.97;;
19897;SDS011;10111;50.814;4.572;2023-03-20T09:32:31;9.00;;;4.60;;
19897;SDS011;10111;50.814;4.572;2023-03-20T09:34:57;13.27;;;4.93;;
19897;SDS011;10111;50.814;4.572;2023-03-20T09:37:23;10.33;;;4.40;;
19897;SDS011;10111;50.814;4.572;2023-03-20T09:39:49;9.60;;;4.70;;
19897;SDS011;10111;50.814;4.572;2023-03-20T09:45:13;13.87;;;4.73;;
19897;SDS011;10111;50.814;4.572;2023-03-20T09:55:32;10.03;;;4.63;;
19897;SDS011;10111;50.814;4.572;2023-03-20T09:58:02;20.20;;;7.27;;
19897;SDS011;10111;50.814;4.572;2023-03-20T10:00:42;15.23;;;5.20;;
19897;SDS011;10111;50.814;4.572;2023-03-20T10:03:18;18.87;;;7.17;;
19897;SDS011;10111;50.814;4.572;2023-03-20T10:05:49;9.87;;;3.80;;
19897;SDS011;10111;50.814;4.572;2023-03-20T10:08:22;10.57;;;4.53;;
19897;SDS011;10111;50.814;4.572;2023-03-20T10:13:47;9.00;;;3.67;;
19897;SDS011;10111;50.814;4.572;2023-03-20T10:16:35;15.47;;;4.43;;
19897;SDS011;10111;50.814;4.572;2023-03-20T10:19:23;10.33;;;3.97;;
19897;SDS011;10111;50.814;4.572;2023-03-20T10:22:01;14.70;;;5.07;;
19897;SDS011;10111;50.814;4.572;2023-03-20T10:24:38;10.37;;;3.70;;
19897;SDS011;10111;50.814;4.572;2023-03-20T10:33:34;10.00;;;3.63;;
19897;SDS011;10111;50.814;4.572;2023-03-20T10:35:55;8.40;;;3.53;;
19897;SDS011;10111;50.814;4.572;2023-03-20T10:41:21;9.90;;;4.40;;
19897;SDS011;10111;50.814;4.572;2023-03-20T10:43:52;13.40;;;4.60;;
19897;SDS011;10111;50.814;4.572;2023-03-20T10:46:24;6.83;;;3.90;;
19897;SDS011;10111;50.814;4.572;2023-03-20T10:51:50;8.23;;;4.30;;
19897;SDS011;10111;50.814;4.572;2023-03-20T10:54:22;10.00;;;3.60;;
19897;SDS011;10111;50.814;4.572;2023-03-20T10:56:54;7.40;;;4.00;;
19897;SDS011;10111;50.814;4.572;2023-03-20T11:01:52;9.30;;;3.67;;
19897;SDS011;10111;50.814;4.572;2023-03-20T11:04:18;9.07;;;3.60;;
19897;SDS011;10111;50.814;4.572;2023-03-20T11:06:47;7.80;;;3.30;;
19897;SDS011;10111;50.814;4.572;2023-03-20T11:09:24;10.40;;;3.53;;
19897;SDS011;10111;50.814;4.572;2023-03-20T11:11:55;7.37;;;4.17;;
19897;SDS011;10111;50.814;4.572;2023-03-20T11:14:24;6.20;;;2.70;;
19897;SDS011;10111;50.814;4.572;2023-03-20T11:16:52;7.47;;;2.87;;
19897;SDS011;10111;50.814;4.572;2023-03-20T11:19:22;6.87;;;3.23;;
19897;SDS011;10111;50.814;4.572;2023-03-20T11:21:50;8.83;;;2.87;;
19897;SDS011;10111;50.814;4.572;2023-03-20T11:26:48;6.43;;;2.90;;
19897;SDS011;10111;50.814;4.572;2023-03-20T11:29:27;8.70;;;3.57;;
19897;SDS011;10111;50.814;4.572;2023-03-20T11:31:54;7.60;;;4.27;;
19897;SDS011;10111;50.814;4.572;2023-03-20T11:34:34;9.20;;;3.50;;
19897;SDS011;10111;50.814;4.572;2023-03-20T11:37:05;6.00;;;2.90;;
19897;SDS011;10111;50.814;4.572;2023-03-20T11:39:51;8.27;;;3.37;;
19897;SDS011;10111;50.814;4.572;2023-03-20T11:42:22;8.03;;;3.50;;
19897;SDS011;10111;50.814;4.572;2023-03-20T11:45:00;5.13;;;3.07;;
19897;SDS011;10111;50.814;4.572;2023-03-20T11:47:38;11.57;;;2.97;;
19897;SDS011;10111;50.814;4.572;2023-03-20T11:50:05;7.83;;;3.10;;
19897;SDS011;10111;50.814;4.572;2023-03-20T11:52:47;5.50;;;2.63;;
19897;SDS011;10111;50.814;4.572;2023-03-20T11:55:32;5.20;;;3.10;;
19897;SDS011;10111;50.814;4.572;2023-03-20T11:58:00;8.00;;;2.80;;
19897;SDS011;10111;50.814;4.572;2023-03-20T12:00:34;8.10;;;3.00;;
19897;SDS011;10111;50.814;4.572;2023-03-20T12:03:02;4.93;;;2.60;;
19897;SDS011;10111;50.814;4.572;2023-03-20T12:05:37;7.40;;;3.57;;
19897;SDS011;10111;50.814;4.572;2023-03-20T12:08:09;9.60;;;3.30;;
19897;SDS011;10111;50.814;4.572;2023-03-20T12:10:42;11.47;;;3.80;;
19897;SDS011;10111;50.814;4.572;2023-03-20T12:15:46;10.67;;;3.83;;
19897;SDS011;10111;50.814;4.572;2023-03-20T12:18:20;7.67;;;4.37;;
19897;SDS011;10111;50.814;4.572;2023-03-20T12:21:35;6.97;;;4.23;;
19897;SDS011;10111;50.814;4.572;2023-03-20T12:24:12;7.87;;;3.73;;
19897;SDS011;10111;50.814;4.572;2023-03-20T12:27:00;6.10;;;3.40;;
19897;SDS011;10111;50.814;4.572;2023-03-20T12:29:47;5.50;;;3.27;;
19897;SDS011;10111;50.814;4.572;2023-03-20T12:35:18;4.33;;;2.77;;
19897;SDS011;10111;50.814;4.572;2023-03-20T12:37:50;4.40;;;2.53;;
19897;SDS011;10111;50.814;4.572;2023-03-20T12:40:17;7.60;;;3.70;;
19897;SDS011;10111;50.814;4.572;2023-03-20T12:43:07;9.00;;;3.67;;
19897;SDS011;10111;50.814;4.572;2023-03-20T12:45:52;10.87;;;4.17;;
19897;SDS011;10111;50.814;4.572;2023-03-20T12:51:05;8.83;;;3.80;;
19897;SDS011;10111;50.814;4.572;2023-03-20T12:53:44;7.13;;;3.90;;
19897;SDS011;10111;50.814;4.572;2023-03-20T12:56:23;12.30;;;4.27;;
19897;SDS011;10111;50.814;4.572;2023-03-20T12:59:41;7.30;;;3.27;;
19897;SDS011;10111;50.814;4.572;2023-03-20T13:01:51;9.33;;;4.50;;
19897;SDS011;10111;50.814;4.572;2023-03-20T13:06:59;6.47;;;3.23;;
19897;SDS011;10111;50.814;4.572;2023-03-20T13:12:02;8.33;;;3.90;;
19897;SDS011;10111;50.814;4.572;2023-03-20T13:17:46;10.10;;;3.63;;
19897;SDS011;10111;50.814;4.572;2023-03-20T13:20:29;6.20;;;3.03;;
19897;SDS011;10111;50.814;4.572;2023-03-20T13:23:20;7.10;;;3.80;;
19897;SDS011;10111;50.814;4.572;2023-03-20T13:31:27;7.93;;;4.23;;
19897;SDS011;10111;50.814;4.572;2023-03-20T13:39:58;7.03;;;3.30;;
19897;SDS011;10111;50.814;4.572;2023-03-20T13:43:13;7.93;;;3.00;;
19897;SDS011;10111;50.814;4.572;2023-03-20T13:45:41;12.80;;;4.17;;
19897;SDS011;10111;50.814;4.572;2023-03-20T13:51:20;10.37;;;4.80;;
19897;SDS011;10111;50.814;4.572;2023-03-20T13:57:08;11.50;;;4.80;;
19897;SDS011;10111;50.814;4.572;2023-03-20T14:05:19;15.90;;;5.23;;
19897;SDS011;10111;50.814;4.572;2023-03-20T14:07:47;6.20;;;3.90;;
19897;SDS011;10111;50.814;4.572;2023-03-20T14:12:57;11.60;;;5.07;;
19897;SDS011;10111;50.814;4.572;2023-03-20T14:15:30;15.03;;;5.30;;
19897;SDS011;10111;50.814;4.572;2023-03-20T14:18:02;11.30;;;4.53;;
19897;SDS011;10111;50.814;4.572;2023-03-20T14:20:38;14.90;;;6.27;;
19897;SDS011;10111;50.814;4.572;2023-03-20T14:23:05;17.47;;;4.70;;
19897;SDS011;10111;50.814;4.572;2023-03-20T14:25:41;17.30;;;6.17;;
19897;SDS011;10111;50.814;4.572;2023-03-20T14:30:40;14.80;;;6.77;;
19897;SDS011;10111;50.814;4.572;2023-03-20T14:35:49;12.67;;;6.53;;
19897;SDS011;10111;50.814;4.572;2023-03-20T14:44:28;15.40;;;5.67;;
19897;SDS011;10111;50.814;4.572;2023-03-20T14:47:05;12.20;;;5.60;;
19897;SDS011;10111;50.814;4.572;2023-03-20T14:49:48;13.17;;;5.63;;
19897;SDS011;10111;50.814;4.572;2023-03-20T14:57:46;8.90;;;5.17;;
19897;SDS011;10111;50.814;4.572;2023-03-20T15:00:28;10.50;;;6.10;;
19897;SDS011;10111;50.814;4.572;2023-03-20T15:03:03;13.67;;;5.40;;
19897;SDS011;10111;50.814;4.572;2023-03-20T15:05:39;17.13;;;6.40;;
19897;SDS011;10111;50.814;4.572;2023-03-20T15:08:14;11.80;;;6.13;;
19897;SDS011;10111;50.814;4.572;2023-03-20T15:10:52;14.40;;;5.83;;
19897;SDS011;10111;50.814;4.572;2023-03-20T15:13:20;14.87;;;7.00;;
19897;SDS011;10111;50.814;4.572;2023-03-20T15:18:26;11.97;;;6.53;;
19897;SDS011;10111;50.814;4.572;2023-03-20T15:20:56;11.13;;;5.90;;
19897;SDS011;10111;50.814;4.572;2023-03-20T15:23:22;17.73;;;7.53;;
19897;SDS011;10111;50.814;4.572;2023-03-20T15:25:49;14.67;;;7.30;;
19897;SDS011;10111;50.814;4.572;2023-03-20T15:28:22;16.40;;;7.23;;
19897;SDS011;10111;50.814;4.572;2023-03-20T15:30:50;12.77;;;7.60;;
19897;SDS011;10111;50.814;4.572;2023-03-20T15:33:33;16.03;;;7.13;;
19897;SDS011;10111;50.814;4.572;2023-03-20T15:36:13;14.00;;;7.23;;
19897;SDS011;10111;50.814;4.572;2023-03-20T15:38:45;19.63;;;7.17;;
19897;SDS011;10111;50.814;4.572;2023-03-20T15:41:23;12.77;;;6.77;;
19897;SDS011;10111;50.814;4.572;2023-03-20T15:43:51;9.80;;;6.77;;
19897;SDS011;10111;50.814;4.572;2023-03-20T15:46:17;11.57;;;6.67;;
19897;SDS011;10111;50.814;4.572;2023-03-20T15:48:49;11.90;;;6.43;;
19897;SDS011;10111;50.814;4.572;2023-03-20T15:51:15;13.00;;;5.77;;
19897;SDS011;10111;50.814;4.572;2023-03-20T15:53:43;11.67;;;6.40;;
19897;SDS011;10111;50.814;4.572;2023-03-20T15:56:12;10.73;;;6.70;;
19897;SDS011;10111;50.814;4.572;2023-03-20T15:58:40;9.47;;;6.53;;
19897;SDS011;10111;50.814;4.572;2023-03-20T16:01:07;12.03;;;6.57;;
19897;SDS011;10111;50.814;4.572;2023-03-20T16:03:37;11.40;;;7.17;;
19897;SDS011;10111;50.814;4.572;2023-03-20T16:06:06;10.33;;;6.33;;
19897;SDS011;10111;50.814;4.572;2023-03-20T16:08:35;11.17;;;6.17;;
19897;SDS011;10111;50.814;4.572;2023-03-20T16:11:13;12.47;;;7.40;;
19897;SDS011;10111;50.814;4.572;2023-03-20T16:13:44;12.13;;;7.23;;
19897;SDS011;10111;50.814;4.572;2023-03-20T16:16:16;13.53;;;6.33;;
19897;SDS011;10111;50.814;4.572;2023-03-20T16:18:45;18.27;;;8.83;;
19897;SDS011;10111;50.814;4.572;2023-03-20T16:21:22;9.33;;;6.33;;
19897;SDS011;10111;50.814;4.572;2023-03-20T16:23:52;10.27;;;6.40;;
19897;SDS011;10111;50.814;4.572;2023-03-20T16:26:20;15.77;;;7.47;;
19897;SDS011;10111;50.814;4.572;2023-03-20T16:28:48;9.63;;;6.43;;
19897;SDS011;10111;50.814;4.572;2023-03-20T16:31:19;16.87;;;7.20;;
19897;SDS011;10111;50.814;4.572;2023-03-20T16:33:49;9.63;;;6.43;;
19897;SDS011;10111;50.814;4.572;2023-03-20T16:36:16;12.03;;;6.03;;
19897;SDS011;10111;50.814;4.572;2023-03-20T16:38:55;17.00;;;8.03;;
19897;SDS011;10111;50.814;4.572;2023-03-20T16:41:30;10.60;;;7.00;;
19897;SDS011;10111;50.814;4.572;2023-03-20T16:43:57;13.10;;;7.20;;
19897;SDS011;10111;50.814;4.572;2023-03-20T16:46:24;16.13;;;10.53;;
19897;SDS011;10111;50.814;4.572;2023-03-20T16:48:55;9.67;;;6.47;;
19897;SDS011;10111;50.814;4.572;2023-03-20T16:51:22;15.00;;;6.37;;
19897;SDS011;10111;50.814;4.572;2023-03-20T16:53:56;12.13;;;5.93;;
19897;SDS011;10111;50.814;4.572;2023-03-20T16:56:35;22.07;;;6.90;;
19897;SDS011;10111;50.814;4.572;2023-03-20T16:59:09;10.43;;;6.23;;
19897;SDS011;10111;50.814;4.572;2023-03-20T17:01:42;10.43;;;6.47;;
19897;SDS011;10111;50.814;4.572;2023-03-20T17:04:13;16.27;;;6.50;;
19897;SDS011;10111;50.814;4.572;2023-03-20T17:06:54;16.10;;;6.17;;